Pagrindinis puslapis
METAR-TAF:

METAR-TAF

Oro uostai :

San Fernando, Argentina

platuma: 34-27-11S, ilguma: 058-35-23W, Aukštis: 3 m

Dabartinis oras

Ataskaita buvo paskelbta 11 minutes, ne 21:00 UTC
Vėjas 14 kt iš Pietų/Pietvakarių
Temperatūra 24°C
Drėgmė 34%
Slėgis 1012 hPa
Matomumas 10 km arba daugiau
Mažai debesys ne aukštis 4000 ft

METAR: SADF 122100Z 20014KT 9999 FEW040 24/07 Q1012

Laikas: 18:11 (21:11 UTC)

Prognozė

Ataskaita buvo paskelbta 4 valandos ir 11 minutes, ne 17:00 UTC
Prognozė galioja nuo 12 metu 18 UTC su 13 metu 18 UTC
Vėjas 20 kt iš Pietvakarių su gūsio iki 30 kt
Matomumas 10 km arba daugiau
Mažai debesys ne aukštis 4000 ft
Tapsmas
nuo 12 metu 22 UTC su 13 metu 00 UTC
Vėjas 10 kt iš Pietų
Matomumas 10 km arba daugiau
nėra debesų žemiau 1500 m ir nėra kamuolinių lietaus debesų
Tapsmas
nuo 13 metu 12 UTC su 13 metu 14 UTC
Vėjas 10 kt iš Rytų

TAF: SADF 121700Z 1218/1318 22020G30KT 9999 FEW040 TX27/1318Z TN15/1309Z BECMG 1222/1300 18010KT CAVOK BECMG 1312/1314 09010KT

Orai ataskaitas ir orų prognozės (METAR, TAF).

turimą stotys yra geltonos ir raudonos taškus žemėlapyje.

Perkelti pele per norėdami pamatyti stoties vardą.

Tada spustelėkite, norėdami matyti oro stebėjimo ir prognozės.

Norėdami pakeisti žemėlapį: spustelėkite ant žalios mygtukų su juodo kryžiaus žemyn,; žalią mygtuką su brūkšneliu, jei norite nutolinti; arba žalių rodyklių gretimoms žemėlapius.


METAR-TAF: